createdAt,value
2023-02-13T00:00:45.380Z,15.20
2023-02-13T00:03:12.587Z,14.85
2023-02-13T00:05:39.708Z,15.55
2023-02-13T00:08:06.772Z,14.88
2023-02-13T00:10:33.817Z,12.63
2023-02-13T00:13:00.980Z,12.75
2023-02-13T00:15:28.278Z,12.90
2023-02-13T00:17:55.501Z,12.30
2023-02-13T00:20:22.678Z,12.70
2023-02-13T00:22:49.908Z,12.23
2023-02-13T00:25:17.097Z,11.52
2023-02-13T00:27:44.342Z,11.38
2023-02-13T00:30:12.081Z,11.55
2023-02-13T00:32:39.204Z,11.40
2023-02-13T00:35:06.694Z,11.15
2023-02-13T00:37:34.411Z,11.30
2023-02-13T00:40:01.705Z,10.60
2023-02-13T00:42:28.852Z,10.57
2023-02-13T00:44:56.159Z,10.57
2023-02-13T00:47:23.640Z,9.60
2023-02-13T00:49:50.856Z,8.85
2023-02-13T00:52:18.054Z,9.50
2023-02-13T00:54:46.979Z,8.98
2023-02-13T00:57:14.203Z,8.88
2023-02-13T00:59:42.859Z,8.05
2023-02-13T01:02:10.137Z,8.60
2023-02-13T01:04:37.370Z,8.20
2023-02-13T01:07:04.454Z,8.18
2023-02-13T01:09:31.692Z,8.15
2023-02-13T01:11:58.780Z,8.00
2023-02-13T01:14:26.160Z,7.57
2023-02-13T01:16:53.274Z,7.15
2023-02-13T01:19:20.480Z,7.93
2023-02-13T01:21:47.685Z,6.22
2023-02-13T01:24:14.905Z,6.55
2023-02-13T01:26:42.044Z,5.50
2023-02-13T01:29:12.509Z,5.35
2023-02-13T01:31:40.321Z,6.38
2023-02-13T01:34:07.618Z,5.82
2023-02-13T01:36:34.863Z,5.63
2023-02-13T01:39:02.028Z,5.10
2023-02-13T01:41:30.911Z,5.13
2023-02-13T01:44:00.732Z,5.40
2023-02-13T01:46:39.052Z,5.03
2023-02-13T01:49:23.231Z,5.38
2023-02-13T01:51:54.511Z,4.35
2023-02-13T01:54:31.450Z,4.47
2023-02-13T01:57:08.454Z,5.30
2023-02-13T01:59:43.242Z,4.55
2023-02-13T02:02:11.340Z,4.70
2023-02-13T02:04:41.099Z,4.88
2023-02-13T02:07:21.813Z,4.95
2023-02-13T02:09:52.598Z,5.45
2023-02-13T02:12:55.201Z,3.88
2023-02-13T02:15:22.658Z,4.40
2023-02-13T02:17:49.858Z,4.40
2023-02-13T02:20:26.623Z,4.50
2023-02-13T02:23:31.219Z,4.28
2023-02-13T02:26:10.443Z,4.80
2023-02-13T02:29:07.285Z,4.35
2023-02-13T02:32:12.902Z,4.32
2023-02-13T02:34:43.275Z,5.10
2023-02-13T02:37:44.097Z,4.50
2023-02-13T02:40:32.609Z,4.72
2023-02-13T02:43:24.660Z,4.70
2023-02-13T02:46:16.127Z,4.13
2023-02-13T02:49:15.634Z,3.80
2023-02-13T02:52:18.107Z,4.47
2023-02-13T02:55:04.159Z,4.22
2023-02-13T02:57:54.768Z,4.30
2023-02-13T03:00:43.776Z,4.53
2023-02-13T03:03:48.970Z,4.57
2023-02-13T03:06:25.278Z,3.95
2023-02-13T03:09:19.327Z,4.07
2023-02-13T03:12:09.895Z,4.13
2023-02-13T03:14:37.996Z,4.35
2023-02-13T03:17:25.205Z,4.55
2023-02-13T03:20:19.977Z,4.60
2023-02-13T03:22:46.996Z,4.47
2023-02-13T03:25:34.486Z,4.45
2023-02-13T03:28:46.809Z,4.65
2023-02-13T03:31:54.252Z,4.55
2023-02-13T03:34:26.146Z,4.72
2023-02-13T03:37:21.308Z,4.43
2023-02-13T03:40:01.144Z,5.43
2023-02-13T03:42:33.559Z,5.30
2023-02-13T03:45:37.906Z,4.68
2023-02-13T03:48:32.173Z,5.03
2023-02-13T03:51:03.756Z,5.43
2023-02-13T03:53:36.354Z,5.88
2023-02-13T03:56:23.483Z,5.50
2023-02-13T03:59:12.725Z,6.65
2023-02-13T04:01:40.532Z,6.32
2023-02-13T04:04:17.897Z,7.47
2023-02-13T04:06:50.907Z,6.65
2023-02-13T04:09:18.767Z,8.77
2023-02-13T04:11:58.051Z,8.57
2023-02-13T04:14:40.589Z,7.97
2023-02-13T04:17:31.414Z,8.43
2023-02-13T04:19:58.566Z,8.25
2023-02-13T04:22:25.601Z,8.80
2023-02-13T04:24:52.957Z,8.50
2023-02-13T04:27:20.408Z,9.45
2023-02-13T04:29:47.448Z,9.88
2023-02-13T04:32:15.160Z,11.05
2023-02-13T04:34:42.518Z,10.52
2023-02-13T04:37:09.632Z,9.95
2023-02-13T04:39:36.806Z,11.13
2023-02-13T04:42:04.044Z,11.05
2023-02-13T04:44:31.167Z,11.05
2023-02-13T04:46:58.449Z,10.77
2023-02-13T04:49:25.525Z,12.20
2023-02-13T04:51:52.597Z,12.23
2023-02-13T04:54:19.674Z,11.18
2023-02-13T04:56:46.843Z,11.13
2023-02-13T04:59:14.113Z,12.05
2023-02-13T05:01:41.217Z,11.88
2023-02-13T05:04:08.524Z,11.98
2023-02-13T05:06:35.727Z,11.57
2023-02-13T05:09:02.811Z,13.80
2023-02-13T05:11:30.079Z,11.82
2023-02-13T05:13:57.271Z,11.60
2023-02-13T05:16:24.506Z,11.75
2023-02-13T05:18:55.070Z,11.77
2023-02-13T05:21:41.052Z,14.18
2023-02-13T05:24:08.741Z,11.80
2023-02-13T05:26:35.853Z,11.43
2023-02-13T05:29:22.914Z,10.73
2023-02-13T05:31:55.202Z,11.27
2023-02-13T05:34:23.670Z,11.25
2023-02-13T05:36:51.550Z,10.45
2023-02-13T05:39:18.812Z,11.05
2023-02-13T05:41:47.406Z,10.80
2023-02-13T05:44:14.991Z,11.98
2023-02-13T05:46:43.745Z,10.98
2023-02-13T05:49:13.155Z,10.45
2023-02-13T05:51:40.426Z,10.47
2023-02-13T05:54:07.659Z,9.52
2023-02-13T05:56:34.721Z,9.43
2023-02-13T05:59:01.919Z,10.38
2023-02-13T06:01:29.024Z,8.38
2023-02-13T06:03:58.514Z,8.63
2023-02-13T06:06:26.258Z,8.25
2023-02-13T06:08:53.541Z,7.50
2023-02-13T06:11:20.742Z,7.18
2023-02-13T06:13:47.997Z,7.00
2023-02-13T06:16:15.181Z,7.35
2023-02-13T06:18:42.291Z,7.00
2023-02-13T06:21:09.561Z,6.85
2023-02-13T06:23:36.893Z,7.15
2023-02-13T06:26:08.841Z,6.90
2023-02-13T06:28:36.080Z,7.13
2023-02-13T06:31:03.563Z,7.30
2023-02-13T06:33:30.930Z,6.68
2023-02-13T06:35:58.368Z,7.15
2023-02-13T06:38:25.641Z,6.75
2023-02-13T06:40:52.925Z,5.85
2023-02-13T06:43:20.105Z,7.93
2023-02-13T06:45:47.470Z,5.75
2023-02-13T06:48:14.955Z,6.50
2023-02-13T06:50:42.151Z,6.75
2023-02-13T06:53:09.332Z,6.15
2023-02-13T06:55:39.533Z,5.90
2023-02-13T07:00:34.163Z,5.22
2023-02-13T07:03:03.379Z,5.75
2023-02-13T07:05:30.888Z,5.22
2023-02-13T07:07:58.397Z,5.07
2023-02-13T07:10:25.548Z,5.57
2023-02-13T07:13:04.991Z,4.93
2023-02-13T07:18:01.767Z,5.88
2023-02-13T07:20:29.205Z,5.13
2023-02-13T07:23:00.842Z,4.82
2023-02-13T07:25:28.370Z,5.22
2023-02-13T07:27:55.939Z,5.40
2023-02-13T07:30:23.004Z,5.65
2023-02-13T07:32:51.501Z,5.80
2023-02-13T07:35:18.686Z,6.25
2023-02-13T07:37:45.849Z,6.07
2023-02-13T07:40:13.084Z,6.03
2023-02-13T07:42:40.273Z,6.35
2023-02-13T07:45:07.819Z,6.18
2023-02-13T07:47:35.391Z,6.68
2023-02-13T07:50:06.098Z,6.88
2023-02-13T07:52:33.745Z,6.22
2023-02-13T07:55:00.829Z,6.53
2023-02-13T07:57:27.979Z,6.97
2023-02-13T07:59:55.242Z,6.90
2023-02-13T08:02:22.365Z,6.63
2023-02-13T08:04:49.498Z,6.80
2023-02-13T08:07:18.349Z,6.18
2023-02-13T08:10:05.060Z,7.72
2023-02-13T08:12:35.255Z,8.20
2023-02-13T08:15:02.790Z,7.65
2023-02-13T08:17:29.850Z,7.68
2023-02-13T08:19:57.118Z,7.13
2023-02-13T08:22:24.411Z,7.30
2023-02-13T08:24:51.855Z,9.02
2023-02-13T08:27:18.941Z,7.55
2023-02-13T08:29:46.095Z,7.07
2023-02-13T08:32:13.539Z,8.18
2023-02-13T08:34:40.757Z,6.72
2023-02-13T08:37:07.818Z,7.55
2023-02-13T08:39:35.151Z,7.88
2023-02-13T08:42:02.381Z,8.80
2023-02-13T08:44:29.511Z,7.82
2023-02-13T08:46:56.624Z,7.15
2023-02-13T08:49:23.850Z,8.27
2023-02-13T08:51:51.155Z,9.57
2023-02-13T08:54:18.677Z,8.35
2023-02-13T08:56:45.945Z,9.23
2023-02-13T08:59:13.250Z,10.93
2023-02-13T09:01:40.799Z,6.97
2023-02-13T09:04:09.391Z,7.13
2023-02-13T09:06:36.678Z,7.85
2023-02-13T09:09:05.931Z,7.47
2023-02-13T09:11:33.057Z,7.28
2023-02-13T09:14:00.310Z,7.47
2023-02-13T09:16:27.464Z,7.05
2023-02-13T09:18:54.756Z,7.28
2023-02-13T09:21:24.082Z,6.70
2023-02-13T09:23:51.949Z,7.20
2023-02-13T09:26:20.839Z,7.00
2023-02-13T09:28:48.577Z,6.75
2023-02-13T09:31:20.903Z,6.95
2023-02-13T09:33:50.234Z,6.82
2023-02-13T09:36:22.645Z,6.75
2023-02-13T09:38:54.890Z,7.05
2023-02-13T09:41:43.128Z,6.72
2023-02-13T09:44:34.326Z,7.20
2023-02-13T09:47:14.432Z,7.07
2023-02-13T09:49:47.676Z,6.82
2023-02-13T09:52:15.390Z,6.45
2023-02-13T09:54:42.932Z,7.57
2023-02-13T09:57:26.049Z,6.53
2023-02-13T10:00:13.538Z,6.78
2023-02-13T10:02:58.978Z,6.60
2023-02-13T10:05:57.975Z,6.88
2023-02-13T10:08:34.402Z,7.30
2023-02-13T10:11:16.785Z,6.22
2023-02-13T10:14:01.973Z,6.57
2023-02-13T10:16:47.430Z,6.30
2023-02-13T10:19:36.870Z,6.68
2023-02-13T10:22:29.026Z,5.88
2023-02-13T10:25:24.490Z,5.65
2023-02-13T10:27:59.607Z,5.30
2023-02-13T10:30:26.660Z,5.63
2023-02-13T10:33:25.896Z,4.43
2023-02-13T10:36:17.245Z,5.72
2023-02-13T10:38:57.218Z,4.55
2023-02-13T10:41:44.693Z,4.15
2023-02-13T10:44:42.323Z,3.17
2023-02-13T10:47:35.170Z,3.75
2023-02-13T10:50:24.167Z,3.50
2023-02-13T10:53:06.675Z,3.88
2023-02-13T10:55:50.185Z,3.80
2023-02-13T10:58:38.581Z,3.45
2023-02-13T11:01:32.210Z,3.40
2023-02-13T11:04:07.539Z,3.60
2023-02-13T11:06:43.650Z,3.85
2023-02-13T11:09:13.659Z,3.83
2023-02-13T11:11:43.724Z,3.80
2023-02-13T11:14:26.860Z,3.67
2023-02-13T11:17:06.609Z,3.17
2023-02-13T11:19:36.191Z,3.47
2023-02-13T11:22:05.308Z,3.47
2023-02-13T11:24:33.446Z,3.10
2023-02-13T11:27:14.049Z,3.53
2023-02-13T11:29:54.882Z,3.50
2023-02-13T11:32:25.062Z,3.65
2023-02-13T11:37:23.409Z,4.25
2023-02-13T11:39:53.681Z,3.67
2023-02-13T11:42:24.798Z,6.15
2023-02-13T11:44:56.263Z,9.27
2023-02-13T11:47:43.246Z,7.38
2023-02-13T11:50:30.289Z,6.80
2023-02-13T11:53:05.805Z,8.02
2023-02-13T11:55:42.927Z,14.20
2023-02-13T11:58:16.223Z,12.45
2023-02-13T12:00:43.933Z,7.63
2023-02-13T12:03:20.476Z,4.70
2023-02-13T12:06:01.107Z,5.10
2023-02-13T12:08:29.644Z,5.80
2023-02-13T12:11:24.642Z,6.57
2023-02-13T12:13:53.538Z,5.28
2023-02-13T12:16:41.557Z,6.25
2023-02-13T12:19:18.016Z,5.70
2023-02-13T12:22:04.005Z,4.78
2023-02-13T12:25:08.175Z,4.38
2023-02-13T12:28:17.316Z,5.40
2023-02-13T12:31:39.390Z,4.90
2023-02-13T12:34:31.664Z,4.53
2023-02-13T12:37:30.113Z,5.22
2023-02-13T12:39:57.451Z,4.28
2023-02-13T12:42:51.061Z,5.03
2023-02-13T12:46:08.732Z,4.97
2023-02-13T12:48:49.175Z,4.72
2023-02-13T12:51:22.605Z,3.70
2023-02-13T12:54:04.659Z,4.57
2023-02-13T12:57:02.731Z,4.25
2023-02-13T12:59:47.905Z,5.30
2023-02-13T13:02:49.741Z,6.85
2023-02-13T13:06:11.047Z,6.47
2023-02-13T13:09:01.465Z,4.53
2023-02-13T13:11:50.294Z,5.00
2023-02-13T13:14:21.165Z,5.05
2023-02-13T13:17:02.747Z,4.65
2023-02-13T13:20:09.177Z,4.57
2023-02-13T13:22:54.376Z,5.20
2023-02-13T13:25:42.216Z,4.45
2023-02-13T13:28:37.587Z,4.65
2023-02-13T13:31:05.665Z,4.72
2023-02-13T13:33:34.165Z,5.22
2023-02-13T13:36:09.575Z,4.20
2023-02-13T13:39:00.552Z,4.70
2023-02-13T13:41:42.449Z,4.70
2023-02-13T13:44:45.365Z,4.85
2023-02-13T13:47:21.741Z,4.40
2023-02-13T13:49:54.023Z,4.70
2023-02-13T13:52:25.341Z,4.88
2023-02-13T13:54:54.732Z,5.45
2023-02-13T13:57:24.353Z,5.75
2023-02-13T14:00:14.314Z,5.10
2023-02-13T14:02:59.807Z,4.32
2023-02-13T14:05:32.505Z,4.35
2023-02-13T14:08:04.342Z,3.95
2023-02-13T14:11:03.758Z,4.15
2023-02-13T14:13:37.501Z,3.42
2023-02-13T14:16:10.211Z,3.33
2023-02-13T14:18:40.036Z,3.30
2023-02-13T14:21:08.877Z,3.67
2023-02-13T14:23:53.019Z,3.33
2023-02-13T14:26:33.962Z,3.92
2023-02-13T14:29:26.867Z,4.00
2023-02-13T14:32:05.708Z,3.75
2023-02-13T14:34:37.376Z,3.80
2023-02-13T14:37:21.189Z,3.95
2023-02-13T14:40:12.650Z,3.45
2023-02-13T14:42:40.919Z,3.90
2023-02-13T14:45:23.408Z,4.10
2023-02-13T14:47:55.732Z,4.07
2023-02-13T14:50:26.079Z,3.80
2023-02-13T14:52:55.841Z,3.78
2023-02-13T14:55:38.222Z,5.72
2023-02-13T14:58:22.958Z,4.90
2023-02-13T15:01:14.344Z,8.27
2023-02-13T15:03:57.767Z,5.82
2023-02-13T15:06:33.704Z,7.43
2023-02-13T15:09:06.887Z,6.30
2023-02-13T15:12:01.036Z,5.75
2023-02-13T15:14:53.753Z,6.10
2023-02-13T15:17:53.309Z,5.80
2023-02-13T15:20:33.605Z,6.20
2023-02-13T15:25:39.561Z,5.57
2023-02-13T15:28:17.405Z,8.05
2023-02-13T15:30:57.912Z,6.25
2023-02-13T15:33:33.886Z,7.63
2023-02-13T15:36:03.614Z,5.30
2023-02-13T15:38:34.116Z,5.90
2023-02-13T15:41:11.841Z,6.65
2023-02-13T15:43:43.876Z,7.68
2023-02-13T15:46:25.899Z,5.15
2023-02-13T15:48:55.244Z,6.05
2023-02-13T15:51:28.763Z,5.27
2023-02-13T15:53:58.545Z,6.30
2023-02-13T15:56:26.770Z,6.80
2023-02-13T15:58:56.213Z,4.70
2023-02-13T16:01:24.277Z,5.00
2023-02-13T16:04:00.966Z,5.40
2023-02-13T16:06:28.809Z,6.45
2023-02-13T16:09:00.118Z,5.35
2023-02-13T16:11:41.303Z,5.65
2023-02-13T16:14:21.643Z,5.45
2023-02-13T16:19:22.916Z,6.47
2023-02-13T16:21:51.554Z,5.60
2023-02-13T16:24:20.045Z,6.75
2023-02-13T16:26:47.798Z,6.30
2023-02-13T16:29:24.472Z,6.80
2023-02-13T16:31:53.233Z,5.35
2023-02-13T16:34:28.951Z,5.40
2023-02-13T16:36:56.690Z,5.43
2023-02-13T16:39:32.913Z,5.55
2023-02-13T16:42:01.618Z,5.88
2023-02-13T16:44:31.689Z,6.00
2023-02-13T16:47:05.926Z,4.85
2023-02-13T16:49:36.456Z,5.43
2023-02-13T16:52:19.474Z,5.13
2023-02-13T16:54:51.051Z,5.75
2023-02-13T16:57:27.993Z,4.85
2023-02-13T17:00:06.754Z,5.13
2023-02-13T17:02:35.786Z,4.55
2023-02-13T17:05:08.689Z,5.28
2023-02-13T17:07:39.040Z,5.90
2023-02-13T17:10:22.617Z,4.45
2023-02-13T17:12:51.922Z,4.03
2023-02-13T17:15:22.216Z,4.55
2023-02-13T17:20:27.053Z,5.00
2023-02-13T17:22:59.812Z,4.07
2023-02-13T17:25:37.973Z,4.93
2023-02-13T17:28:16.940Z,4.30
2023-02-13T17:30:45.016Z,5.30
2023-02-13T17:33:27.230Z,5.30
2023-02-13T17:35:54.881Z,6.05
2023-02-13T17:38:22.507Z,6.72
2023-02-13T17:40:49.900Z,5.22
2023-02-13T17:43:18.880Z,6.38
2023-02-13T17:45:47.167Z,5.35
2023-02-13T17:48:14.424Z,6.22
2023-02-13T17:50:41.815Z,6.15
2023-02-13T17:53:21.923Z,6.72
2023-02-13T17:55:49.134Z,6.25
2023-02-13T17:58:16.366Z,6.35
2023-02-13T18:00:43.608Z,6.55
2023-02-13T18:03:12.728Z,6.22
2023-02-13T18:05:40.503Z,6.00
2023-02-13T18:08:09.175Z,6.38
2023-02-13T18:10:37.617Z,5.43
2023-02-13T18:13:05.473Z,5.72
2023-02-13T18:15:41.735Z,6.28
2023-02-13T18:18:09.494Z,5.72
2023-02-13T18:20:36.981Z,5.93
2023-02-13T18:23:04.250Z,6.05
2023-02-13T18:25:31.423Z,5.13
2023-02-13T18:27:58.786Z,6.10
2023-02-13T18:30:26.145Z,5.45
2023-02-13T18:32:55.568Z,5.00
2023-02-13T18:35:23.611Z,5.97
2023-02-13T18:37:51.725Z,5.90
2023-02-13T18:40:19.009Z,4.97
2023-02-13T18:42:46.468Z,5.60
2023-02-13T18:45:13.645Z,5.00
2023-02-13T18:47:40.853Z,5.38
2023-02-13T18:50:08.841Z,5.55
2023-02-13T18:52:36.375Z,5.93
2023-02-13T18:55:06.476Z,5.25
2023-02-13T18:57:33.844Z,5.80
2023-02-13T19:00:01.009Z,6.38
2023-02-13T19:02:28.383Z,7.15
2023-02-13T19:04:55.612Z,6.10
2023-02-13T19:07:22.609Z,7.03
2023-02-13T19:09:50.006Z,6.35
2023-02-13T19:12:17.236Z,5.45
2023-02-13T19:14:44.509Z,6.25
2023-02-13T19:17:11.877Z,6.22
2023-02-13T19:19:39.502Z,6.13
2023-02-13T19:22:06.898Z,6.07
2023-02-13T19:24:33.948Z,5.95
2023-02-13T19:27:01.193Z,6.45
2023-02-13T19:29:28.396Z,6.40
2023-02-13T19:31:55.631Z,6.60
2023-02-13T19:34:22.809Z,7.10
2023-02-13T19:36:50.107Z,6.20
2023-02-13T19:39:17.106Z,7.47
2023-02-13T19:41:44.914Z,6.47
2023-02-13T19:44:12.261Z,7.65
2023-02-13T19:46:39.509Z,7.72
2023-02-13T19:49:07.257Z,8.93
2023-02-13T19:51:35.237Z,10.70
2023-02-13T19:54:08.312Z,7.93
2023-02-13T19:56:39.964Z,6.68
2023-02-13T19:59:08.088Z,6.90
2023-02-13T20:01:35.294Z,8.18
2023-02-13T20:04:02.565Z,6.80
2023-02-13T20:06:36.111Z,6.72
2023-02-13T20:09:07.670Z,5.78
2023-02-13T20:11:34.903Z,5.40
2023-02-13T20:14:02.259Z,5.78
2023-02-13T20:16:34.414Z,5.75
2023-02-13T20:19:09.837Z,6.30
2023-02-13T20:21:37.235Z,6.78
2023-02-13T20:24:05.898Z,6.85
2023-02-13T20:26:33.635Z,6.72
2023-02-13T20:29:01.204Z,5.68
2023-02-13T20:31:30.184Z,6.40
2023-02-13T20:33:58.503Z,7.40
2023-02-13T20:36:28.660Z,6.70
2023-02-13T20:38:59.779Z,7.18
2023-02-13T20:41:29.424Z,7.47
2023-02-13T20:44:02.648Z,8.05
2023-02-13T20:46:31.855Z,7.70
2023-02-13T20:48:59.549Z,6.63
2023-02-13T20:51:26.790Z,6.78
2023-02-13T20:53:54.524Z,7.22
2023-02-13T20:56:23.640Z,6.57
2023-02-13T20:58:52.279Z,6.60
2023-02-13T21:01:22.147Z,9.85
2023-02-13T21:03:53.895Z,7.47
2023-02-13T21:06:27.966Z,6.57
2023-02-13T21:08:55.798Z,7.95
2023-02-13T21:11:23.814Z,6.72
2023-02-13T21:13:51.670Z,6.63
2023-02-13T21:16:25.380Z,7.30
2023-02-13T21:18:55.037Z,6.32
2023-02-13T21:21:24.381Z,8.30
2023-02-13T21:24:08.033Z,7.17
2023-02-13T21:26:36.248Z,5.82
2023-02-13T21:29:04.163Z,6.88
2023-02-13T21:31:34.538Z,7.15
2023-02-13T21:34:04.906Z,7.25
2023-02-13T21:39:00.676Z,7.00
2023-02-13T21:41:28.176Z,6.45
2023-02-13T21:43:55.471Z,6.93
2023-02-13T21:46:28.420Z,6.18
2023-02-13T21:49:00.723Z,6.40
2023-02-13T21:51:30.384Z,7.22
2023-02-13T21:53:58.164Z,7.05
2023-02-13T21:56:28.680Z,6.95
2023-02-13T21:58:57.213Z,7.07
2023-02-13T22:01:29.972Z,6.65
2023-02-13T22:04:01.057Z,6.90
2023-02-13T22:06:31.381Z,8.35
2023-02-13T22:09:04.174Z,7.90
2023-02-13T22:11:32.658Z,8.52
2023-02-13T22:14:02.876Z,7.35
2023-02-13T22:16:31.336Z,8.10
2023-02-13T22:18:59.111Z,8.32
2023-02-13T22:21:28.665Z,7.47
2023-02-13T22:23:56.138Z,7.25
2023-02-13T22:26:36.202Z,7.43
2023-02-13T22:29:06.545Z,8.43
2023-02-13T22:31:34.468Z,7.88
2023-02-13T22:34:04.328Z,8.65
2023-02-13T22:36:34.204Z,8.93
2023-02-13T22:39:01.505Z,8.80
2023-02-13T22:41:29.047Z,7.38
2023-02-13T22:43:57.561Z,8.23
2023-02-13T22:46:30.493Z,8.57
2023-02-13T22:48:58.459Z,7.40
2023-02-13T22:51:28.517Z,6.70
2023-02-13T22:53:57.125Z,7.22
2023-02-13T22:56:25.422Z,7.43
2023-02-13T22:58:53.007Z,7.90
2023-02-13T23:01:22.262Z,7.93
2023-02-13T23:03:49.707Z,8.73
2023-02-13T23:06:17.184Z,8.32
2023-02-13T23:08:45.153Z,7.95
2023-02-13T23:11:33.830Z,7.65
2023-02-13T23:14:01.352Z,7.18
2023-02-13T23:16:49.405Z,6.65
2023-02-13T23:19:16.686Z,6.10
2023-02-13T23:21:44.094Z,6.78
2023-02-13T23:24:11.449Z,6.65
2023-02-13T23:26:39.077Z,6.40
2023-02-13T23:29:06.210Z,6.70
2023-02-13T23:31:33.642Z,6.50
2023-02-13T23:34:00.812Z,6.57
2023-02-13T23:36:27.978Z,7.43
2023-02-13T23:38:55.162Z,6.15
2023-02-13T23:41:22.363Z,6.32
2023-02-13T23:43:49.479Z,5.93
2023-02-13T23:46:16.890Z,5.78
2023-02-13T23:48:46.193Z,6.00
2023-02-13T23:51:13.419Z,6.80
2023-02-13T23:53:40.571Z,6.50
2023-02-13T23:56:07.852Z,5.72
2023-02-13T23:58:35.137Z,6.82
